Time;durP1;ratioP1;P1;durP2;ratioP2;P2;SDS_P1;SDS_P2;PMS_P1;PMS_P2;Temp;Humidity;BMP_temperature;BMP_pressure;BME280_temperature;BME280_humidity;BME280_pressure;Samples;Min_cycle;Max_cycle;Signal;HPM_P1;HPM_P2
2022/10/03 00:02:26;;;;;;;0.40;0.40;;;14.60;98.00;;;;;;4960385;28;20034;-77
2022/10/03 00:05:38;;;;;;;0.10;0.10;;;14.70;98.00;;;;;;4977321;28;20035;-77
2022/10/03 00:09:15;;;;;;;0.00;0.00;;;14.70;98.00;;;;;;4977745;28;20359;-77
2022/10/03 00:12:46;;;;;;;0.05;0.05;;;14.80;98.00;;;;;;4825423;29;20108;-77
2022/10/03 00:15:40;;;;;;;0.45;0.45;;;14.80;98.00;;;;;;4825204;29;20042;-78
2022/10/03 00:18:42;;;;;;;0.00;0.00;;;14.90;98.00;;;;;;4825713;29;20042;-77
2022/10/03 00:21:49;;;;;;;0.03;0.03;;;14.90;98.00;;;;;;4825337;29;20034;-77
2022/10/03 00:24:42;;;;;;;0.30;0.30;;;14.90;98.00;;;;;;4810074;29;20046;-77
2022/10/03 00:28:05;;;;;;;0.00;0.00;;;14.90;98.00;;;;;;4865182;29;20040;-77
2022/10/03 00:31:38;;;;;;;0.00;0.00;;;15.00;98.00;;;;;;4916856;29;20136;-77
2022/10/03 00:34:43;;;;;;;0.08;0.08;;;14.90;98.00;;;;;;4845872;29;20046;-77
2022/10/03 00:38:06;;;;;;;0.30;0.30;;;14.90;98.00;;;;;;4858789;29;20457;-77
2022/10/03 00:41:22;;;;;;;0.10;0.10;;;14.80;98.00;;;;;;4859869;29;20096;-77
2022/10/03 00:47:51;;;;;;;0.40;0.30;;;14.70;98.00;;;;;;4922039;29;20064;-77
2022/10/03 00:50:55;;;;;;;0.00;0.00;;;14.60;98.00;;;;;;4921405;29;20096;-77
2022/10/03 00:53:50;;;;;;;0.15;0.15;;;14.40;98.00;;;;;;4921433;29;20028;-77
2022/10/03 00:57:02;;;;;;;0.00;0.00;;;14.30;98.00;;;;;;4920171;28;20056;-77
2022/10/03 01:00:21;;;;;;;0.10;0.10;;;14.30;98.00;;;;;;4980563;28;20042;-77
2022/10/03 01:03:34;;;;;;;0.10;0.10;;;14.20;98.00;;;;;;4980630;28;20030;-77
2022/10/03 01:06:27;;;;;;;0.15;0.15;;;14.10;98.00;;;;;;4980472;28;20089;-77
2022/10/03 01:09:30;;;;;;;0.10;0.10;;;14.20;98.00;;;;;;4980485;28;20023;-77
2022/10/03 01:12:48;;;;;;;0.25;0.25;;;14.30;98.00;;;;;;4980413;28;20059;-77
2022/10/03 01:15:38;;;;;;;0.10;0.10;;;14.40;98.00;;;;;;4980335;28;20066;-77
2022/10/03 01:18:56;;;;;;;0.20;0.20;;;14.40;98.00;;;;;;4963351;28;20037;-77
2022/10/03 01:21:46;;;;;;;1.15;0.98;;;14.40;98.00;;;;;;4950014;28;20027;-77
2022/10/03 01:31:18;;;;;;;0.10;0.10;;;14.60;98.00;;;;;;4980301;28;20046;-77
2022/10/03 01:34:47;;;;;;;0.20;0.20;;;14.60;98.00;;;;;;4979930;28;20031;-77
2022/10/03 01:37:45;;;;;;;0.00;0.00;;;14.70;98.00;;;;;;4882908;29;20129;-77
2022/10/03 01:40:50;;;;;;;0.00;0.00;;;14.70;98.00;;;;;;4883137;29;20058;-77
2022/10/03 01:44:01;;;;;;;0.00;0.00;;;14.70;98.00;;;;;;4883006;29;20304;-77
2022/10/03 01:47:14;;;;;;;0.00;0.00;;;14.60;98.00;;;;;;4882305;29;20044;-77
2022/10/03 01:50:53;;;;;;;0.00;0.00;;;14.50;98.00;;;;;;4882895;29;20045;-77
2022/10/03 01:54:35;;;;;;;0.13;0.13;;;14.40;98.00;;;;;;4882746;29;20120;-77
2022/10/03 01:57:37;;;;;;;0.00;0.00;;;14.50;98.00;;;;;;4867032;29;20442;-77
2022/10/03 02:00:22;;;;;;;0.10;0.05;;;14.60;98.00;;;;;;4882636;29;20072;-77
2022/10/03 02:03:20;;;;;;;0.10;0.10;;;14.50;98.00;;;;;;4882543;29;20025;-77
2022/10/03 02:06:09;;;;;;;0.10;0.10;;;14.40;98.00;;;;;;4882505;29;20045;-77
2022/10/03 02:09:11;;;;;;;0.00;0.00;;;14.30;98.00;;;;;;4867093;29;20044;-77
2022/10/03 02:12:01;;;;;;;0.00;0.00;;;14.30;98.00;;;;;;4903033;28;20097;-77
2022/10/03 02:14:53;;;;;;;0.43;0.43;;;14.40;98.00;;;;;;4979187;28;20019;-77
2022/10/03 02:17:51;;;;;;;0.10;0.10;;;14.50;98.00;;;;;;4961980;28;20141;-77
2022/10/03 02:20:53;;;;;;;0.10;0.10;;;14.50;98.00;;;;;;4979319;28;20031;-77
2022/10/03 02:23:31;;;;;;;0.00;0.00;;;14.60;98.00;;;;;;4979231;28;20035;-77
2022/10/03 02:26:03;;;;;;;0.05;0.05;;;14.60;98.00;;;;;;4961829;28;20054;-77
2022/10/03 02:29:27;;;;;;;0.25;0.25;;;14.60;98.00;;;;;;4961920;28;20379;-77
2022/10/03 02:32:30;;;;;;;0.00;0.00;;;14.80;98.00;;;;;;4978814;28;20031;-77
2022/10/03 02:35:38;;;;;;;0.45;0.45;;;14.90;98.00;;;;;;4979034;28;20042;-77
2022/10/03 02:38:35;;;;;;;0.13;0.13;;;14.90;98.00;;;;;;4961857;28;20039;-76
2022/10/03 02:41:38;;;;;;;0.08;0.08;;;14.90;98.00;;;;;;4978894;28;20401;-78
2022/10/03 02:44:41;;;;;;;0.00;0.00;;;14.80;98.00;;;;;;4978683;28;20026;-77
2022/10/03 02:47:37;;;;;;;0.28;0.20;;;14.80;98.00;;;;;;4978617;28;20034;-77
2022/10/03 02:51:06;;;;;;;0.00;0.00;;;14.80;98.00;;;;;;4961491;28;20034;-77
2022/10/03 02:54:24;;;;;;;0.05;0.05;;;14.90;98.00;;;;;;4881811;29;20436;-77
2022/10/03 02:57:10;;;;;;;0.00;0.00;;;14.80;98.00;;;;;;4880606;29;20049;-77
2022/10/03 02:59:48;;;;;;;;;;;14.60;98.00;;;;;;4881986;29;20036;-77
2022/10/03 03:03:00;;;;;;;0.13;0.10;;;14.50;98.00;;;;;;4881536;29;19919;-77
2022/10/03 03:05:55;;;;;;;0.00;0.00;;;14.30;98.00;;;;;;4881314;29;20123;-77
2022/10/03 03:09:07;;;;;;;0.00;0.00;;;14.20;98.00;;;;;;4881563;29;20462;-77
2022/10/03 03:12:10;;;;;;;0.10;0.10;;;14.10;98.00;;;;;;4881512;29;20382;-77
2022/10/03 03:15:12;;;;;;;0.00;0.00;;;14.10;98.00;;;;;;4881238;29;20049;-77
2022/10/03 03:18:30;;;;;;;0.00;0.00;;;14.00;98.00;;;;;;4881160;29;20141;-77
2022/10/03 03:21:12;;;;;;;0.85;0.85;;;13.90;98.00;;;;;;4881324;29;20041;-77
2022/10/03 03:24:05;;;;;;;0.00;0.00;;;13.90;98.00;;;;;;4881338;29;20041;-77
2022/10/03 03:27:18;;;;;;;0.22;0.22;;;13.80;98.00;;;;;;4906491;28;20042;-77
2022/10/03 03:30:42;;;;;;;0.00;0.00;;;13.90;98.00;;;;;;4881084;29;20456;-76
2022/10/03 03:33:44;;;;;;;0.10;0.10;;;14.00;98.00;;;;;;4880957;29;20048;-76
2022/10/03 03:36:42;;;;;;;0.00;0.00;;;14.10;98.00;;;;;;4880820;29;20048;-76
2022/10/03 03:39:39;;;;;;;0.00;0.00;;;14.30;98.00;;;;;;4881078;29;20096;-76
2022/10/03 03:43:07;;;;;;;0.00;0.00;;;14.50;98.00;;;;;;4880923;29;20037;-76
2022/10/03 03:46:15;;;;;;;0.30;0.30;;;14.70;98.00;;;;;;4880840;29;20404;-76
2022/10/03 03:49:15;;;;;;;0.00;0.00;;;14.80;98.00;;;;;;4880997;29;20037;-76
2022/10/03 03:52:30;;;;;;;0.10;0.10;;;14.90;98.00;;;;;;4880783;29;20033;-76
2022/10/03 03:55:47;;;;;;;0.00;0.00;;;15.10;98.00;;;;;;4880772;29;20120;-76
2022/10/03 03:59:05;;;;;;;0.00;0.00;;;15.10;98.00;;;;;;4825612;29;20046;-76
2022/10/03 04:02:13;;;;;;;0.00;0.00;;;15.10;98.00;;;;;;4810207;29;20035;-76
2022/10/03 04:05:26;;;;;;;0.20;0.20;;;15.10;98.00;;;;;;4825528;29;20208;-76
2022/10/03 04:08:29;;;;;;;0.10;0.10;;;15.20;98.00;;;;;;4900093;29;20084;-76
2022/10/03 04:11:13;;;;;;;0.47;0.47;;;15.20;98.00;;;;;;4903348;29;20036;-76
2022/10/03 04:14:15;;;;;;;0.15;0.15;;;15.20;98.00;;;;;;4903307;29;20044;-77
2022/10/03 04:20:31;;;;;;;0.00;0.00;;;15.30;97.70;;;;;;4892622;29;20055;-77
2022/10/03 04:23:43;;;;;;;1.00;0.70;;;15.40;97.40;;;;;;4887372;29;20160;-77
2022/10/03 04:26:58;;;;;;;0.00;0.00;;;15.40;97.20;;;;;;4911562;28;20337;-77
2022/10/03 04:29:36;;;;;;;0.00;0.00;;;15.50;96.90;;;;;;4964088;28;20094;-77
2022/10/03 04:32:44;;;;;;;0.20;0.20;;;15.50;96.60;;;;;;4963937;28;20042;-76
2022/10/03 04:35:40;;;;;;;0.00;0.00;;;15.50;97.00;;;;;;4964169;28;20039;-76
2022/10/03 04:38:58;;;;;;;0.00;0.00;;;15.50;97.20;;;;;;4981079;28;20066;-76
2022/10/03 04:41:48;;;;;;;;;;;15.50;96.90;;;;;;4868928;29;20044;-76
2022/10/03 04:48:08;;;;;;;0.00;0.00;;;15.40;97.40;;;;;;4884020;29;20059;-76
2022/10/03 04:51:12;;;;;;;0.00;0.00;;;15.40;97.40;;;;;;4884042;29;20077;-76
2022/10/03 04:54:17;;;;;;;0.00;0.00;;;15.30;96.90;;;;;;4882857;29;20079;-76
2022/10/03 04:57:10;;;;;;;0.00;0.00;;;15.40;96.50;;;;;;4828216;29;20383;-77
2022/10/03 05:00:13;;;;;;;0.00;0.00;;;15.50;96.10;;;;;;4883776;29;20036;-76
2022/10/03 05:02:51;;;;;;;0.00;0.00;;;15.50;95.90;;;;;;4883713;29;20037;-76
2022/10/03 05:09:19;;;;;;;18.05;2.55;;;15.50;95.50;;;;;;4883914;29;20092;-76
2022/10/03 05:12:19;;;;;;;0.00;0.00;;;15.50;96.10;;;;;;4828175;29;20039;-76
2022/10/03 05:15:21;;;;;;;0.28;0.28;;;15.40;95.70;;;;;;4827863;29;20043;-76
2022/10/03 05:18:36;;;;;;;0.00;0.00;;;15.40;96.60;;;;;;4898623;29;20473;-76
2022/10/03 05:22:01;;;;;;;0.00;0.00;;;15.30;95.50;;;;;;4901131;29;20048;-76
2022/10/03 05:25:17;;;;;;;0.10;0.10;;;15.30;95.80;;;;;;4846309;29;20194;-77
2022/10/03 05:28:37;;;;;;;0.15;0.15;;;15.40;96.20;;;;;;4791702;30;20373;-76
2022/10/03 05:31:36;;;;;;;0.00;0.00;;;15.30;94.80;;;;;;4755544;30;20036;-76
2022/10/03 05:34:40;;;;;;;0.10;0.10;;;15.40;94.50;;;;;;4791464;29;20390;-76
2022/10/03 05:37:20;;;;;;;0.00;0.00;;;15.50;95.70;;;;;;4791560;29;20055;-76
2022/10/03 05:40:39;;;;;;;0.20;0.20;;;15.40;96.70;;;;;;4791535;29;20035;-76
2022/10/03 05:43:39;;;;;;;0.00;0.00;;;15.40;96.90;;;;;;4829968;29;20042;-76
2022/10/03 05:46:07;;;;;;;0.00;0.00;;;15.40;96.10;;;;;;4847244;29;20431;-76
2022/10/03 05:49:19;;;;;;;0.00;0.00;;;15.40;95.80;;;;;;4901703;29;20036;-76
2022/10/03 05:52:41;;;;;;;0.00;0.00;;;15.40;96.30;;;;;;4901703;29;20036;-76
2022/10/03 05:55:26;;;;;;;0.00;0.00;;;15.40;96.70;;;;;;4863964;29;20041;-76
2022/10/03 05:58:47;;;;;;;0.00;0.00;;;15.40;97.40;;;;;;4887328;29;20044;-76
2022/10/03 06:02:10;;;;;;;0.00;0.00;;;15.40;97.40;;;;;;4920332;29;20039;-76
2022/10/03 06:05:31;;;;;;;0.00;0.00;;;15.40;97.80;;;;;;4850256;29;20041;-76
2022/10/03 06:08:42;;;;;;;0.00;0.00;;;15.40;96.90;;;;;;4901307;29;20326;-76
2022/10/03 06:11:45;;;;;;;0.00;0.00;;;15.50;96.50;;;;;;4901279;29;20465;-76
2022/10/03 06:14:42;;;;;;;0.50;0.50;;;15.60;95.30;;;;;;4900975;29;20044;-76
2022/10/03 06:17:44;;;;;;;0.00;0.00;;;15.70;94.30;;;;;;4901243;29;20051;-76
2022/10/03 06:21:06;;;;;;;0.00;0.00;;;15.90;94.70;;;;;;4901269;29;20041;-76
2022/10/03 06:24:31;;;;;;;1.35;0.35;;;16.00;94.30;;;;;;4845303;29;20049;-76
2022/10/03 06:27:31;;;;;;;0.00;0.00;;;16.10;93.50;;;;;;4827312;29;20034;-76
2022/10/03 06:30:15;;;;;;;0.00;0.00;;;16.20;93.90;;;;;;4845293;29;20042;-76
2022/10/03 06:33:14;;;;;;;0.00;0.00;;;16.30;93.20;;;;;;4844939;29;20355;-77
2022/10/03 06:36:38;;;;;;;0.13;0.10;;;16.30;93.00;;;;;;4844880;29;20081;-77
2022/10/03 06:39:41;;;;;;;0.00;0.00;;;16.30;92.60;;;;;;4808379;29;20432;-77
2022/10/03 06:42:19;;;;;;;0.00;0.00;;;16.30;92.90;;;;;;4826769;29;20168;-76
2022/10/03 06:45:15;;;;;;;0.00;0.00;;;16.20;93.80;;;;;;4826668;29;20471;-76
2022/10/03 06:48:18;;;;;;;0.10;0.10;;;16.20;94.10;;;;;;4826538;29;20046;-76
2022/10/03 06:51:43;;;;;;;0.00;0.00;;;16.10;94.20;;;;;;4826601;29;20046;-76
2022/10/03 06:58:15;;;;;;;0.00;0.00;;;16.30;92.60;;;;;;4790418;30;20104;-76
2022/10/03 07:01:11;;;;;;;0.57;0.45;;;16.40;96.10;;;;;;4836150;29;20041;-76
2022/10/03 07:04:10;;;;;;;0.00;0.00;;;16.40;96.20;;;;;;4844520;29;20426;-76
2022/10/03 07:07:04;;;;;;;0.00;0.00;;;16.30;96.70;;;;;;4844601;29;20354;-76
2022/10/03 07:13:38;;;;;;;0.00;0.00;;;16.10;98.00;;;;;;4844758;29;20049;-76
2022/10/03 07:16:44;;;;;;;0.00;0.00;;;16.00;98.00;;;;;;4895586;29;20056;-76
2022/10/03 07:19:46;;;;;;;0.00;0.00;;;16.00;98.00;;;;;;4918897;29;20032;-76
2022/10/03 07:23:03;;;;;;;0.52;0.52;;;15.90;98.00;;;;;;4918922;29;20122;-76
2022/10/03 07:26:03;;;;;;;0.82;0.82;;;15.90;98.00;;;;;;4918817;29;20028;-76
2022/10/03 07:29:16;;;;;;;0.22;0.22;;;15.80;98.00;;;;;;4926913;28;20321;-76
2022/10/03 07:39:32;;;;;;;0.20;0.20;;;15.80;98.00;;;;;;4826146;29;20065;-77
2022/10/03 07:42:51;;;;;;;0.20;0.20;;;15.90;98.00;;;;;;4810396;29;20060;-77
2022/10/03 07:45:29;;;;;;;0.10;0.10;;;15.90;98.00;;;;;;4771619;30;20048;-77
2022/10/03 07:48:31;;;;;;;0.30;0.30;;;16.00;98.00;;;;;;4757056;30;20481;-77
2022/10/03 07:51:13;;;;;;;0.20;0.20;;;16.00;98.00;;;;;;4825834;29;20053;-77
2022/10/03 07:54:30;;;;;;;0.20;0.20;;;16.00;98.00;;;;;;4825810;29;20428;-77
2022/10/03 07:57:11;;;;;;;0.07;0.07;;;16.20;98.00;;;;;;4826114;29;20053;-77
2022/10/03 08:00:14;;;;;;;0.30;0.30;;;16.40;98.00;;;;;;4918410;29;20280;-77
2022/10/03 08:03:29;;;;;;;0.03;0.03;;;16.70;98.00;;;;;;4918440;29;20032;-77
2022/10/03 08:06:00;;;;;;;0.47;0.40;;;16.90;97.80;;;;;;4918104;29;20100;-77
2022/10/03 08:09:12;;;;;;;0.35;0.35;;;17.20;97.50;;;;;;4902471;29;20420;-77
2022/10/03 08:15:11;;;;;;;0.28;0.15;;;18.20;95.50;;;;;;4918343;29;20479;-77
2022/10/03 08:18:13;;;;;;;0.50;0.50;;;18.90;94.20;;;;;;4902215;29;20044;-77
2022/10/03 08:21:14;;;;;;;0.50;0.50;;;19.50;91.60;;;;;;4934076;28;20030;-77
2022/10/03 08:24:13;;;;;;;0.55;0.55;;;20.60;89.30;;;;;;4977392;28;20114;-77
2022/10/03 08:27:16;;;;;;;0.55;0.55;;;21.70;86.60;;;;;;4977352;28;20424;-75
2022/10/03 08:30:35;;;;;;;0.32;0.32;;;22.40;82.40;;;;;;4977465;28;20031;-75
2022/10/03 08:36:44;;;;;;;0.20;0.20;;;23.60;80.00;;;;;;4977343;28;20073;-75
2022/10/03 08:39:50;;;;;;;0.38;0.38;;;24.20;77.80;;;;;;4977240;28;20031;-75
2022/10/03 08:42:49;;;;;;;9.73;0.40;;;24.50;77.40;;;;;;4960159;28;20090;-75
2022/10/03 08:45:27;;;;;;;0.10;0.10;;;24.70;75.60;;;;;;4960038;28;20035;-75
2022/10/03 08:48:40;;;;;;;0.40;0.40;;;25.00;76.10;;;;;;4960068;28;20038;-75
2022/10/03 08:51:52;;;;;;;0.80;0.80;;;25.20;74.70;;;;;;4977095;28;20054;-75
2022/10/03 08:55:37;;;;;;;0.30;0.30;;;25.40;75.10;;;;;;4978432;28;20038;-75
2022/10/03 08:58:39;;;;;;;0.20;0.20;;;25.80;74.60;;;;;;4828195;29;20051;-75
2022/10/03 09:01:46;;;;;;;0.50;0.40;;;25.90;72.90;;;;;;4828295;29;20050;-74
2022/10/03 09:04:49;;;;;;;0.52;0.32;;;25.80;72.10;;;;;;4774184;30;20384;-75
2022/10/03 09:07:49;;;;;;;0.68;0.65;;;25.80;72.80;;;;;;4774322;30;20039;-75
2022/10/03 09:11:02;;;;;;;0.28;0.28;;;25.80;76.60;;;;;;4828213;29;20107;-75
2022/10/03 09:13:46;;;;;;;0.40;0.40;;;26.00;73.70;;;;;;4774040;30;20039;-75
2022/10/03 09:16:46;;;;;;;0.30;0.30;;;26.00;73.80;;;;;;4773850;30;20442;-75
2022/10/03 09:19:51;;;;;;;0.38;0.25;;;26.20;73.40;;;;;;4773943;30;20130;-75
2022/10/03 09:22:48;;;;;;;1.63;1.17;;;26.40;72.60;;;;;;4759033;30;20341;-75
2022/10/03 09:26:14;;;;;;;3.13;0.88;;;26.30;72.60;;;;;;4758834;30;20039;-75
2022/10/03 09:32:16;;;;;;;0.28;0.28;;;26.10;73.80;;;;;;4786319;29;20093;-75
2022/10/03 09:35:19;;;;;;;0.40;0.40;;;26.20;71.70;;;;;;4864261;29;20342;-75
2022/10/03 09:38:21;;;;;;;0.52;0.52;;;25.80;74.00;;;;;;4864572;29;20346;-75
2022/10/03 09:41:24;;;;;;;0.40;0.40;;;26.00;72.70;;;;;;4864416;29;20045;-74
2022/10/03 09:44:20;;;;;;;0.20;0.20;;;25.80;74.70;;;;;;4864582;29;20073;-75
2022/10/03 09:50:21;;;;;;;0.40;0.40;;;26.00;74.40;;;;;;4909878;29;20051;-74
2022/10/03 09:53:42;;;;;;;1.10;0.45;;;26.40;72.80;;;;;;4920548;29;20080;-75
2022/10/03 09:56:29;;;;;;;0.10;0.10;;;26.70;72.90;;;;;;4920239;29;20092;-75
2022/10/03 09:59:41;;;;;;;0.10;0.10;;;26.50;73.20;;;;;;4979677;28;20466;-74
2022/10/03 10:02:53;;;;;;;0.60;0.60;;;26.60;73.10;;;;;;4979565;28;20034;-74
2022/10/03 10:05:46;;;;;;;0.22;0.22;;;26.80;73.70;;;;;;4979056;28;20110;-75
2022/10/03 10:08:31;;;;;;;2.10;0.93;;;26.80;73.20;;;;;;4979382;28;20312;-74
2022/10/03 10:11:34;;;;;;;0.63;0.53;;;26.80;75.40;;;;;;4979418;28;20023;-74
2022/10/03 10:14:59;;;;;;;0.40;0.38;;;26.50;72.10;;;;;;4979334;28;20035;-75
2022/10/03 10:17:55;;;;;;;0.57;0.50;;;26.30;73.60;;;;;;4882392;29;20390;-75
2022/10/03 10:21:13;;;;;;;1.27;0.22;;;26.60;73.70;;;;;;4882288;29;20033;-75
2022/10/03 10:24:25;;;;;;;0.38;0.32;;;26.60;73.40;;;;;;4882285;29;20037;-75
2022/10/03 10:27:24;;;;;;;1.42;0.70;;;26.50;72.30;;;;;;4889354;28;20116;-75
2022/10/03 10:30:43;;;;;;;0.30;0.30;;;26.40;74.90;;;;;;4965157;28;20035;-75
2022/10/03 10:37:17;;;;;;;0.82;0.82;;;26.40;72.70;;;;;;4978930;28;20454;-75
2022/10/03 10:43:42;;;;;;;0.77;0.60;;;26.70;76.20;;;;;;4979189;28;20034;-75
2022/10/03 10:46:17;;;;;;;0.60;0.47;;;26.90;75.80;;;;;;4961555;28;20034;-74
2022/10/03 10:49:17;;;;;;;0.47;0.47;;;26.70;71.90;;;;;;4961591;28;20051;-75
2022/10/03 10:52:45;;;;;;;0.45;0.45;;;26.80;73.80;;;;;;4978684;28;20102;-75
2022/10/03 10:56:08;;;;;;;2.80;1.23;;;26.70;74.90;;;;;;4978495;28;20035;-75
2022/10/03 10:59:20;;;;;;;0.50;0.45;;;26.40;72.40;;;;;;4881651;29;20347;-75
2022/10/03 11:02:22;;;;;;;0.45;0.43;;;26.10;75.50;;;;;;4881519;29;20427;-75
2022/10/03 11:05:34;;;;;;;0.50;0.50;;;25.80;74.30;;;;;;4881470;29;20140;-75
2022/10/03 11:08:48;;;;;;;0.50;0.50;;;25.40;75.40;;;;;;4881695;29;20029;-74
2022/10/03 11:12:10;;;;;;;0.25;0.25;;;25.50;72.10;;;;;;4881449;29;20214;-74
2022/10/03 11:15:13;;;;;;;0.45;0.35;;;25.30;75.10;;;;;;4881352;29;20040;-75
2022/10/03 11:18:16;;;;;;;0.40;0.40;;;25.60;75.80;;;;;;4880666;29;20033;-75
2022/10/03 11:21:32;;;;;;;0.10;0.10;;;25.50;72.20;;;;;;4881364;29;20037;-75
2022/10/03 11:24:36;;;;;;;0.57;0.45;;;25.50;75.20;;;;;;4881083;29;20029;-75
2022/10/03 11:27:41;;;;;;;0.30;0.30;;;25.50;73.90;;;;;;4881188;29;20045;-75
2022/10/03 11:30:44;;;;;;;0.28;0.25;;;25.70;73.70;;;;;;4978057;28;20034;-74
2022/10/03 11:37:27;;;;;;;1.02;0.30;;;25.50;76.60;;;;;;4978124;28;20371;-74
2022/10/03 11:40:34;;;;;;;0.28;0.28;;;25.40;76.80;;;;;;4977842;28;20101;-75
2022/10/03 11:43:53;;;;;;;0.00;0.00;;;25.40;75.40;;;;;;4978145;28;20311;-75
2022/10/03 11:46:56;;;;;;;0.10;0.10;;;25.20;74.70;;;;;;4977809;28;20035;-75
2022/10/03 11:50:09;;;;;;;0.80;0.40;;;25.10;73.50;;;;;;4960566;28;20110;-75
2022/10/03 11:53:22;;;;;;;0.50;0.50;;;25.00;74.40;;;;;;4977638;28;20038;-75
2022/10/03 11:56:02;;;;;;;0.65;0.65;;;24.70;75.40;;;;;;4977413;28;20041;-75
2022/10/03 11:59:13;;;;;;;0.10;0.10;;;24.60;76.40;;;;;;4960800;28;20089;-75
2022/10/03 12:02:31;;;;;;;0.47;0.30;;;24.50;79.60;;;;;;4977574;28;20089;-75
2022/10/03 12:09:26;;;;;;;0.55;0.43;;;24.20;77.40;;;;;;4771343;30;20054;-75
2022/10/03 12:12:29;;;;;;;0.10;0.10;;;24.10;77.20;;;;;;4771345;30;20052;-74
2022/10/03 12:19:29;;;;;;;0.10;0.10;;;24.00;76.70;;;;;;4774973;29;20063;-74
2022/10/03 12:25:42;;;;;;;0.30;0.30;;;23.30;78.90;;;;;;4789416;29;20111;-77
2022/10/03 12:28:41;;;;;;;0.10;0.10;;;23.20;78.90;;;;;;4789219;29;20413;-77
2022/10/03 12:31:53;;;;;;;0.25;0.25;;;23.20;78.60;;;;;;4792680;30;20044;-77
2022/10/03 12:34:57;;;;;;;0.43;0.32;;;23.20;82.70;;;;;;4792514;29;20050;-77
2022/10/03 12:38:34;;;;;;;0.10;0.00;;;23.30;81.90;;;;;;4792627;30;20544;-77
2022/10/03 12:41:24;;;;;;;0.05;0.00;;;23.20;80.40;;;;;;4774656;30;20052;-77
2022/10/03 12:44:36;;;;;;;0.88;0.75;;;23.00;78.50;;;;;;4830139;29;20049;-77
2022/10/03 12:47:08;;;;;;;0.05;0.05;;;22.90;81.20;;;;;;4865581;29;20081;-77
2022/10/03 12:50:13;;;;;;;0.20;0.20;;;22.90;83.70;;;;;;4849918;29;20085;-77
2022/10/03 12:53:24;;;;;;;0.20;0.20;;;22.80;82.40;;;;;;4916372;29;20386;-77
2022/10/03 12:59:55;;;;;;;0.08;0.08;;;22.60;81.10;;;;;;4865404;29;20048;-77
2022/10/03 13:02:46;;;;;;;0.00;0.00;;;22.60;79.60;;;;;;4865238;29;20049;-77
2022/10/03 13:09:16;;;;;;;0.00;0.00;;;22.60;81.00;;;;;;4865327;29;20433;-77
2022/10/03 13:12:15;;;;;;;0.10;0.10;;;22.70;81.20;;;;;;4864855;29;20046;-77
2022/10/03 13:15:17;;;;;;;0.20;0.15;;;22.50;79.60;;;;;;4874927;29;20374;-77
2022/10/03 13:21:19;;;;;;;0.55;0.55;;;22.20;81.50;;;;;;4883619;29;20096;-77
2022/10/03 13:27:47;;;;;;;0.00;0.00;;;22.20;83.90;;;;;;4864972;29;20081;-77
2022/10/03 13:30:28;;;;;;;0.20;0.20;;;22.20;83.60;;;;;;4864596;29;20465;-77
2022/10/03 13:33:21;;;;;;;0.32;0.30;;;22.20;80.60;;;;;;4913719;29;20353;-77
2022/10/03 13:35:57;;;;;;;0.00;0.00;;;22.20;82.60;;;;;;4923849;29;20055;-76
2022/10/03 13:39:01;;;;;;;0.00;0.00;;;22.10;82.30;;;;;;4978132;28;20035;-77
2022/10/03 13:41:58;;;;;;;0.43;0.43;;;22.10;84.30;;;;;;4979059;28;20074;-77
2022/10/03 13:47:59;;;;;;;0.00;0.00;;;21.80;83.30;;;;;;4980270;28;20085;-77
2022/10/03 13:51:06;;;;;;;0.10;0.10;;;21.80;84.20;;;;;;4963949;28;20055;-77
2022/10/03 13:54:24;;;;;;;2.65;1.00;;;21.80;84.50;;;;;;4962801;28;20027;-77
2022/10/03 13:57:02;;;;;;;0.10;0.10;;;21.70;81.80;;;;;;4979351;28;20121;-77
2022/10/03 14:00:08;;;;;;;0.20;0.20;;;21.60;83.70;;;;;;4979630;28;20023;-77
2022/10/03 14:03:34;;;;;;;0.27;0.27;;;21.40;85.30;;;;;;4979845;28;20027;-77
2022/10/03 14:06:26;;;;;;;0.15;0.08;;;21.10;84.90;;;;;;4882634;29;20658;-77
2022/10/03 14:09:13;;;;;;;0.10;0.08;;;20.80;85.00;;;;;;4867021;29;20066;-77
2022/10/03 14:12:24;;;;;;;0.30;0.30;;;20.70;85.60;;;;;;4882555;29;20073;-77
2022/10/03 14:15:52;;;;;;;0.15;0.15;;;20.70;87.40;;;;;;4882393;29;20041;-77
2022/10/03 14:18:29;;;;;;;;;;;20.70;86.90;;;;;;4827453;29;20053;-77
2022/10/03 14:21:32;;;;;;;0.17;0.13;;;20.80;84.30;;;;;;4827099;29;20221;-77
2022/10/03 14:28:00;;;;;;;0.00;0.00;;;20.80;87.20;;;;;;4882754;29;20101;-77
2022/10/03 14:31:09;;;;;;;0.10;0.10;;;20.70;87.70;;;;;;4961965;28;20478;-77
2022/10/03 14:34:11;;;;;;;0.00;0.00;;;20.60;87.70;;;;;;4882129;29;20390;-77
2022/10/03 14:37:34;;;;;;;0.08;0.08;;;20.50;89.00;;;;;;4895310;28;20076;-77
2022/10/03 14:40:29;;;;;;;0.13;0.08;;;20.40;90.40;;;;;;4978898;28;20038;-77
2022/10/03 14:46:20;;;;;;;0.25;0.25;;;20.40;89.20;;;;;;4979022;28;20098;-77
2022/10/03 14:49:04;;;;;;;2.83;1.55;;;20.50;88.50;;;;;;4961742;28;20031;-77
2022/10/03 14:51:46;;;;;;;0.00;0.00;;;20.60;88.30;;;;;;4961689;28;20034;-77
2022/10/03 14:54:38;;;;;;;0.10;0.10;;;20.60;87.70;;;;;;4978590;28;20501;-77
2022/10/03 14:57:45;;;;;;;0.30;0.30;;;20.70;85.40;;;;;;4963595;28;20087;-77
2022/10/03 15:07:32;;;;;;;0.00;0.00;;;20.70;88.40;;;;;;4938396;29;20113;-77
2022/10/03 15:10:13;;;;;;;0.03;0.03;;;20.70;88.10;;;;;;4938227;29;20086;-77
2022/10/03 15:12:57;;;;;;;0.17;0.17;;;20.60;89.50;;;;;;4938070;29;20047;-77
2022/10/03 15:19:09;;;;;;;0.15;0.13;;;20.60;89.60;;;;;;4938127;29;20067;-77
2022/10/03 15:21:46;;;;;;;0.20;0.20;;;20.50;89.50;;;;;;4938006;29;20047;-77
2022/10/03 15:24:34;;;;;;;0.00;0.00;;;20.30;90.40;;;;;;4937880;29;20031;-78
2022/10/03 15:27:08;;;;;;;0.20;0.20;;;20.30;89.90;;;;;;4937698;29;20048;-77
2022/10/03 15:29:44;;;;;;;0.20;0.20;;;20.20;88.70;;;;;;4937906;29;20039;-77
2022/10/03 15:32:43;;;;;;;0.35;0.35;;;20.20;88.30;;;;;;4921802;29;20044;-77
2022/10/03 15:35:40;;;;;;;0.22;0.22;;;20.00;89.60;;;;;;4937492;29;20036;-77
2022/10/03 15:38:37;;;;;;;0.30;0.30;;;19.90;89.50;;;;;;4956157;28;20457;-77
2022/10/03 15:41:39;;;;;;;0.00;0.00;;;19.90;91.20;;;;;;4977722;28;20030;-77
2022/10/03 15:47:31;;;;;;;0.35;0.35;;;19.50;92.30;;;;;;4978218;28;20111;-77
2022/10/03 15:50:48;;;;;;;0.20;0.20;;;19.30;93.00;;;;;;4977787;28;20031;-78
2022/10/03 15:53:38;;;;;;;0.10;0.10;;;19.10;93.30;;;;;;4865342;29;20093;-77
2022/10/03 15:59:43;;;;;;;0.10;0.10;;;18.80;95.70;;;;;;4880860;29;20069;-77
2022/10/03 16:02:48;;;;;;;0.32;0.32;;;18.60;96.20;;;;;;4865921;29;20097;-77
2022/10/03 16:05:26;;;;;;;0.20;0.20;;;18.50;96.40;;;;;;4880257;29;20041;-77
2022/10/03 16:08:19;;;;;;;0.28;0.25;;;18.30;97.40;;;;;;4865682;29;20072;-77
2022/10/03 16:11:20;;;;;;;18.08;0.75;;;18.10;97.90;;;;;;4880658;29;20132;-77
2022/10/03 16:14:18;;;;;;;0.03;0.03;;;18.00;98.00;;;;;;4865068;29;20073;-77
2022/10/03 16:16:58;;;;;;;0.35;0.35;;;17.90;98.00;;;;;;4880563;29;20045;-77
2022/10/03 16:19:57;;;;;;;0.00;0.00;;;17.80;98.00;;;;;;4865558;29;20029;-77
2022/10/03 16:22:52;;;;;;;0.95;0.75;;;17.70;98.00;;;;;;4867878;29;20045;-77
2022/10/03 16:29:08;;;;;;;0.35;0.35;;;17.40;98.00;;;;;;4977742;28;20495;-77
2022/10/03 16:32:23;;;;;;;0.00;0.00;;;17.30;98.00;;;;;;4960622;28;20483;-77
2022/10/03 16:38:31;;;;;;;0.40;0.40;;;17.20;98.00;;;;;;4977792;28;20058;-77
2022/10/03 16:41:49;;;;;;;0.00;0.00;;;17.20;98.00;;;;;;4977382;28;20050;-77
2022/10/03 16:44:32;;;;;;;0.20;0.20;;;17.10;98.00;;;;;;4864615;29;20190;-77
2022/10/03 16:47:08;;;;;;;0.10;0.10;;;17.00;98.00;;;;;;4917774;28;20046;-77
2022/10/03 16:53:06;;;;;;;6.03;1.63;;;16.90;98.00;;;;;;4977216;28;20077;-77
2022/10/03 16:55:44;;;;;;;8.13;1.83;;;16.80;98.00;;;;;;4976890;28;20412;-77
2022/10/03 16:58:39;;;;;;;0.20;0.20;;;16.80;98.00;;;;;;4960375;28;20343;-78
2022/10/03 17:01:51;;;;;;;0.17;0.17;;;16.70;98.00;;;;;;4976984;28;20028;-77
2022/10/03 17:04:36;;;;;;;0.22;0.22;;;16.70;98.00;;;;;;4883205;29;20467;-77
2022/10/03 17:07:22;;;;;;;0.00;0.00;;;16.70;98.00;;;;;;4926433;28;20054;-77
2022/10/03 17:10:01;;;;;;;0.13;0.13;;;16.70;98.00;;;;;;4977128;28;20415;-77
2022/10/03 17:12:52;;;;;;;0.00;0.00;;;16.80;98.00;;;;;;4976967;28;20331;-77
2022/10/03 17:19:30;;;;;;;0.30;0.30;;;16.90;98.00;;;;;;4980551;28;20041;-78
2022/10/03 17:22:26;;;;;;;0.10;0.10;;;16.90;98.00;;;;;;4883473;29;20064;-78
2022/10/03 17:28:48;;;;;;;0.10;0.10;;;17.10;98.00;;;;;;4883736;29;20052;-77
2022/10/03 17:31:33;;;;;;;0.08;0.00;;;17.10;98.00;;;;;;4883288;29;20137;-77
2022/10/03 17:34:29;;;;;;;0.00;0.00;;;17.10;98.00;;;;;;4883124;29;20041;-77
2022/10/03 17:37:25;;;;;;;0.32;0.32;;;17.00;98.00;;;;;;4877172;28;20045;-77
2022/10/03 17:40:49;;;;;;;0.17;0.17;;;17.00;98.00;;;;;;4980104;28;20045;-77
2022/10/03 17:43:46;;;;;;;0.00;0.00;;;16.90;98.00;;;;;;4883229;29;20037;-77
2022/10/03 17:46:33;;;;;;;0.25;0.00;;;16.80;98.00;;;;;;4882996;29;20053;-77
2022/10/03 17:49:35;;;;;;;1.58;0.85;;;16.80;98.00;;;;;;4882953;29;20464;-77
2022/10/03 17:52:24;;;;;;;0.05;0.05;;;16.70;98.00;;;;;;4882920;29;20446;-77
2022/10/03 17:58:16;;;;;;;0.00;0.00;;;16.60;98.00;;;;;;4883289;29;20485;-77